sensor_id;sensor_type;location;lat;lon;timestamp;temperature;humidity
24636;DHT22;12772;49.794;10.024;2022-10-31T00:03:40;15.10;56.90
24636;DHT22;12772;49.794;10.024;2022-10-31T00:07:42;15.10;57.40
24636;DHT22;12772;49.794;10.024;2022-10-31T00:11:44;15.10;57.70
24636;DHT22;12772;49.794;10.024;2022-10-31T00:15:46;15.10;57.80
24636;DHT22;12772;49.794;10.024;2022-10-31T00:19:48;15.10;57.70
24636;DHT22;12772;49.794;10.024;2022-10-31T00:23:50;15.00;57.80
24636;DHT22;12772;49.794;10.024;2022-10-31T00:27:52;14.90;57.90
24636;DHT22;12772;49.794;10.024;2022-10-31T00:31:54;14.90;58.30
24636;DHT22;12772;49.794;10.024;2022-10-31T00:35:56;14.90;59.10
24636;DHT22;12772;49.794;10.024;2022-10-31T00:39:58;14.90;59.70
24636;DHT22;12772;49.794;10.024;2022-10-31T00:44:00;14.90;60.00
24636;DHT22;12772;49.794;10.024;2022-10-31T00:48:03;14.90;60.30
24636;DHT22;12772;49.794;10.024;2022-10-31T00:52:05;14.90;60.60
24636;DHT22;12772;49.794;10.024;2022-10-31T00:56:07;14.90;60.40
24636;DHT22;12772;49.794;10.024;2022-10-31T01:00:09;14.90;60.40
24636;DHT22;12772;49.794;10.024;2022-10-31T01:04:11;14.90;60.30
24636;DHT22;12772;49.794;10.024;2022-10-31T01:08:13;14.90;60.10
24636;DHT22;12772;49.794;10.024;2022-10-31T01:12:15;14.80;60.10
24636;DHT22;12772;49.794;10.024;2022-10-31T01:16:19;14.80;59.90
24636;DHT22;12772;49.794;10.024;2022-10-31T01:20:22;14.80;59.90
24636;DHT22;12772;49.794;10.024;2022-10-31T01:24:24;14.70;59.90
24636;DHT22;12772;49.794;10.024;2022-10-31T01:28:26;14.70;59.90
24636;DHT22;12772;49.794;10.024;2022-10-31T01:32:28;14.70;60.00
24636;DHT22;12772;49.794;10.024;2022-10-31T01:36:35;14.70;60.00
24636;DHT22;12772;49.794;10.024;2022-10-31T01:40:37;14.70;60.00
24636;DHT22;12772;49.794;10.024;2022-10-31T01:48:41;14.70;59.50
24636;DHT22;12772;49.794;10.024;2022-10-31T01:52:46;14.60;59.20
24636;DHT22;12772;49.794;10.024;2022-10-31T01:56:52;14.50;59.40
24636;DHT22;12772;49.794;10.024;2022-10-31T02:00:58;14.50;59.80
24636;DHT22;12772;49.794;10.024;2022-10-31T02:05:04;14.50;60.00
24636;DHT22;12772;49.794;10.024;2022-10-31T02:09:07;14.50;60.10
24636;DHT22;12772;49.794;10.024;2022-10-31T02:13:09;14.40;60.10
24636;DHT22;12772;49.794;10.024;2022-10-31T02:17:11;14.40;60.30
24636;DHT22;12772;49.794;10.024;2022-10-31T02:21:48;14.40;60.30
24636;DHT22;12772;49.794;10.024;2022-10-31T02:30:54;14.40;60.30
24636;DHT22;12772;49.794;10.024;2022-10-31T02:35:04;14.30;60.40
24636;DHT22;12772;49.794;10.024;2022-10-31T02:39:21;14.30;60.60
24636;DHT22;12772;49.794;10.024;2022-10-31T02:47:41;14.30;60.50
24636;DHT22;12772;49.794;10.024;2022-10-31T02:51:45;14.30;60.60
24636;DHT22;12772;49.794;10.024;2022-10-31T02:55:56;14.30;60.60
24636;DHT22;12772;49.794;10.024;2022-10-31T03:00:05;14.30;60.80
24636;DHT22;12772;49.794;10.024;2022-10-31T03:04:22;14.30;60.70
24636;DHT22;12772;49.794;10.024;2022-10-31T03:09:11;14.30;60.50
24636;DHT22;12772;49.794;10.024;2022-10-31T03:13:31;14.20;60.70
24636;DHT22;12772;49.794;10.024;2022-10-31T03:17:37;14.20;61.10
24636;DHT22;12772;49.794;10.024;2022-10-31T03:21:53;14.20;61.20
24636;DHT22;12772;49.794;10.024;2022-10-31T03:25:57;14.20;61.20
24636;DHT22;12772;49.794;10.024;2022-10-31T03:30:05;14.20;61.20
24636;DHT22;12772;49.794;10.024;2022-10-31T03:34:09;14.20;61.20
24636;DHT22;12772;49.794;10.024;2022-10-31T03:38:12;14.10;61.10
24636;DHT22;12772;49.794;10.024;2022-10-31T03:42:23;14.20;61.20
24636;DHT22;12772;49.794;10.024;2022-10-31T03:46:26;14.20;61.20
24636;DHT22;12772;49.794;10.024;2022-10-31T03:50:38;14.20;61.20
24636;DHT22;12772;49.794;10.024;2022-10-31T03:54:44;14.30;61.20
24636;DHT22;12772;49.794;10.024;2022-10-31T03:59:01;14.30;61.20
24636;DHT22;12772;49.794;10.024;2022-10-31T04:03:10;14.30;61.30
24636;DHT22;12772;49.794;10.024;2022-10-31T04:07:13;14.30;61.20
24636;DHT22;12772;49.794;10.024;2022-10-31T04:11:19;14.30;61.40
24636;DHT22;12772;49.794;10.024;2022-10-31T04:15:22;14.20;61.60
24636;DHT22;12772;49.794;10.024;2022-10-31T04:19:25;14.20;61.80
24636;DHT22;12772;49.794;10.024;2022-10-31T04:23:27;14.20;62.10
24636;DHT22;12772;49.794;10.024;2022-10-31T04:27:29;14.20;62.00
24636;DHT22;12772;49.794;10.024;2022-10-31T04:31:31;14.20;62.00
24636;DHT22;12772;49.794;10.024;2022-10-31T04:35:33;14.20;62.00
24636;DHT22;12772;49.794;10.024;2022-10-31T04:39:35;14.20;62.10
24636;DHT22;12772;49.794;10.024;2022-10-31T04:43:37;14.30;62.20
24636;DHT22;12772;49.794;10.024;2022-10-31T04:47:39;14.30;62.20
24636;DHT22;12772;49.794;10.024;2022-10-31T04:51:41;14.30;62.10
24636;DHT22;12772;49.794;10.024;2022-10-31T04:55:43;14.30;62.20
24636;DHT22;12772;49.794;10.024;2022-10-31T04:59:45;14.30;62.10
24636;DHT22;12772;49.794;10.024;2022-10-31T05:03:47;14.30;61.40
24636;DHT22;12772;49.794;10.024;2022-10-31T05:07:50;14.30;61.50
24636;DHT22;12772;49.794;10.024;2022-10-31T05:11:52;14.20;61.40
24636;DHT22;12772;49.794;10.024;2022-10-31T05:15:54;14.10;61.10
24636;DHT22;12772;49.794;10.024;2022-10-31T05:19:56;14.00;61.40
24636;DHT22;12772;49.794;10.024;2022-10-31T05:23:58;14.00;62.10
24636;DHT22;12772;49.794;10.024;2022-10-31T05:28:00;13.90;61.80
24636;DHT22;12772;49.794;10.024;2022-10-31T05:32:02;13.90;61.90
24636;DHT22;12772;49.794;10.024;2022-10-31T05:36:05;13.90;61.80
24636;DHT22;12772;49.794;10.024;2022-10-31T05:40:09;13.90;61.90
24636;DHT22;12772;49.794;10.024;2022-10-31T05:44:12;13.80;61.80
24636;DHT22;12772;49.794;10.024;2022-10-31T05:48:14;13.80;62.00
24636;DHT22;12772;49.794;10.024;2022-10-31T05:52:16;13.80;62.10
24636;DHT22;12772;49.794;10.024;2022-10-31T05:56:18;13.90;62.30
24636;DHT22;12772;49.794;10.024;2022-10-31T06:00:21;13.90;62.30
24636;DHT22;12772;49.794;10.024;2022-10-31T06:04:23;13.90;62.30
24636;DHT22;12772;49.794;10.024;2022-10-31T06:08:25;14.00;62.30
24636;DHT22;12772;49.794;10.024;2022-10-31T06:12:28;14.00;62.20
24636;DHT22;12772;49.794;10.024;2022-10-31T06:16:30;14.00;62.20
24636;DHT22;12772;49.794;10.024;2022-10-31T06:20:33;14.00;62.20
24636;DHT22;12772;49.794;10.024;2022-10-31T06:24:35;14.00;62.20
24636;DHT22;12772;49.794;10.024;2022-10-31T06:28:37;13.90;62.10
24636;DHT22;12772;49.794;10.024;2022-10-31T06:32:39;13.90;62.20
24636;DHT22;12772;49.794;10.024;2022-10-31T06:36:41;14.00;62.20
24636;DHT22;12772;49.794;10.024;2022-10-31T06:40:43;14.00;62.20
24636;DHT22;12772;49.794;10.024;2022-10-31T06:44:45;14.00;61.90
24636;DHT22;12772;49.794;10.024;2022-10-31T06:48:47;13.90;61.80
24636;DHT22;12772;49.794;10.024;2022-10-31T06:52:53;13.90;62.00
24636;DHT22;12772;49.794;10.024;2022-10-31T06:56:55;13.90;62.10
24636;DHT22;12772;49.794;10.024;2022-10-31T07:01:00;14.00;62.70
24636;DHT22;12772;49.794;10.024;2022-10-31T07:05:02;14.00;62.00
24636;DHT22;12772;49.794;10.024;2022-10-31T07:09:04;14.00;61.80
24636;DHT22;12772;49.794;10.024;2022-10-31T07:13:11;14.00;61.50
24636;DHT22;12772;49.794;10.024;2022-10-31T07:17:13;14.00;61.40
24636;DHT22;12772;49.794;10.024;2022-10-31T07:21:16;13.90;61.50
24636;DHT22;12772;49.794;10.024;2022-10-31T07:25:18;14.00;61.60
24636;DHT22;12772;49.794;10.024;2022-10-31T07:29:20;13.90;61.60
24636;DHT22;12772;49.794;10.024;2022-10-31T07:33:23;14.00;62.00
24636;DHT22;12772;49.794;10.024;2022-10-31T07:37:27;14.00;62.10
24636;DHT22;12772;49.794;10.024;2022-10-31T07:41:29;14.00;62.00
24636;DHT22;12772;49.794;10.024;2022-10-31T07:45:31;14.00;61.90
24636;DHT22;12772;49.794;10.024;2022-10-31T07:49:33;14.00;61.90
24636;DHT22;12772;49.794;10.024;2022-10-31T07:53:35;14.00;62.10
24636;DHT22;12772;49.794;10.024;2022-10-31T07:57:37;14.00;62.40
24636;DHT22;12772;49.794;10.024;2022-10-31T08:01:39;14.00;62.70
24636;DHT22;12772;49.794;10.024;2022-10-31T08:05:41;14.10;62.90
24636;DHT22;12772;49.794;10.024;2022-10-31T08:09:46;14.10;63.00
24636;DHT22;12772;49.794;10.024;2022-10-31T08:13:48;14.20;63.10
24636;DHT22;12772;49.794;10.024;2022-10-31T08:17:50;14.20;63.20
24636;DHT22;12772;49.794;10.024;2022-10-31T08:21:53;14.30;63.50
24636;DHT22;12772;49.794;10.024;2022-10-31T08:25:57;14.30;63.80
24636;DHT22;12772;49.794;10.024;2022-10-31T08:29:59;14.30;63.80
24636;DHT22;12772;49.794;10.024;2022-10-31T08:34:01;14.30;63.90
24636;DHT22;12772;49.794;10.024;2022-10-31T08:38:03;14.30;64.70
24636;DHT22;12772;49.794;10.024;2022-10-31T08:42:05;14.40;65.10
24636;DHT22;12772;49.794;10.024;2022-10-31T08:46:08;14.40;65.10
24636;DHT22;12772;49.794;10.024;2022-10-31T08:50:10;14.50;65.30
24636;DHT22;12772;49.794;10.024;2022-10-31T08:54:12;14.50;65.10
24636;DHT22;12772;49.794;10.024;2022-10-31T08:58:19;14.60;65.00
24636;DHT22;12772;49.794;10.024;2022-10-31T09:02:21;14.60;64.90
24636;DHT22;12772;49.794;10.024;2022-10-31T09:06:23;14.70;65.20
24636;DHT22;12772;49.794;10.024;2022-10-31T09:10:26;14.70;65.20
24636;DHT22;12772;49.794;10.024;2022-10-31T09:14:28;14.80;65.10
24636;DHT22;12772;49.794;10.024;2022-10-31T09:18:30;14.80;65.10
24636;DHT22;12772;49.794;10.024;2022-10-31T09:22:32;14.80;65.30
24636;DHT22;12772;49.794;10.024;2022-10-31T09:26:34;14.90;65.30
24636;DHT22;12772;49.794;10.024;2022-10-31T09:30:36;14.90;65.10
24636;DHT22;12772;49.794;10.024;2022-10-31T09:34:38;14.90;65.20
24636;DHT22;12772;49.794;10.024;2022-10-31T09:38:40;14.90;65.40
24636;DHT22;12772;49.794;10.024;2022-10-31T09:51:17;14.90;65.60
24636;DHT22;12772;49.794;10.024;2022-10-31T09:55:39;14.90;65.90
24636;DHT22;12772;49.794;10.024;2022-10-31T09:59:43;15.00;65.90
24636;DHT22;12772;49.794;10.024;2022-10-31T10:03:50;15.00;66.10
24636;DHT22;12772;49.794;10.024;2022-10-31T10:08:11;15.10;65.90
24636;DHT22;12772;49.794;10.024;2022-10-31T10:25:20;15.30;65.90
24636;DHT22;12772;49.794;10.024;2022-10-31T10:29:34;15.30;66.00
24636;DHT22;12772;49.794;10.024;2022-10-31T10:33:46;15.40;66.00
24636;DHT22;12772;49.794;10.024;2022-10-31T10:37:52;15.40;65.90
24636;DHT22;12772;49.794;10.024;2022-10-31T10:41:57;15.40;66.00
24636;DHT22;12772;49.794;10.024;2022-10-31T10:50:53;15.50;66.10
24636;DHT22;12772;49.794;10.024;2022-10-31T10:59:25;15.50;66.60
24636;DHT22;12772;49.794;10.024;2022-10-31T11:03:28;15.50;66.80
24636;DHT22;12772;49.794;10.024;2022-10-31T11:07:38;15.60;66.70
24636;DHT22;12772;49.794;10.024;2022-10-31T11:11:40;15.70;66.80
24636;DHT22;12772;49.794;10.024;2022-10-31T11:16:10;15.70;66.80
24636;DHT22;12772;49.794;10.024;2022-10-31T11:24:16;15.90;66.50
24636;DHT22;12772;49.794;10.024;2022-10-31T11:28:18;15.90;66.50
24636;DHT22;12772;49.794;10.024;2022-10-31T11:32:23;16.00;66.30
24636;DHT22;12772;49.794;10.024;2022-10-31T11:36:30;16.10;66.10
24636;DHT22;12772;49.794;10.024;2022-10-31T11:40:35;16.10;65.90
24636;DHT22;12772;49.794;10.024;2022-10-31T11:44:42;16.20;66.00
24636;DHT22;12772;49.794;10.024;2022-10-31T11:48:49;16.20;66.00
24636;DHT22;12772;49.794;10.024;2022-10-31T11:52:53;16.20;66.10
24636;DHT22;12772;49.794;10.024;2022-10-31T11:56:56;16.20;66.10
24636;DHT22;12772;49.794;10.024;2022-10-31T12:00:58;16.30;66.10
24636;DHT22;12772;49.794;10.024;2022-10-31T12:05:06;16.40;66.10
24636;DHT22;12772;49.794;10.024;2022-10-31T12:09:22;16.40;65.80
24636;DHT22;12772;49.794;10.024;2022-10-31T12:18:25;16.40;65.90
24636;DHT22;12772;49.794;10.024;2022-10-31T12:27:14;16.50;65.90
24636;DHT22;12772;49.794;10.024;2022-10-31T12:31:36;16.60;65.70
24636;DHT22;12772;49.794;10.024;2022-10-31T12:35:46;16.60;65.70
24636;DHT22;12772;49.794;10.024;2022-10-31T12:40:15;16.60;65.50
24636;DHT22;12772;49.794;10.024;2022-10-31T12:48:52;16.70;65.30
24636;DHT22;12772;49.794;10.024;2022-10-31T12:57:27;16.70;65.00
24636;DHT22;12772;49.794;10.024;2022-10-31T13:01:38;16.70;65.30
24636;DHT22;12772;49.794;10.024;2022-10-31T13:05:46;16.70;65.50
24636;DHT22;12772;49.794;10.024;2022-10-31T13:10:19;16.70;65.70
24636;DHT22;12772;49.794;10.024;2022-10-31T13:14:39;16.70;65.70
24636;DHT22;12772;49.794;10.024;2022-10-31T13:22:50;16.80;65.60
24636;DHT22;12772;49.794;10.024;2022-10-31T13:26:56;16.80;65.70
24636;DHT22;12772;49.794;10.024;2022-10-31T13:30:59;16.90;65.80
24636;DHT22;12772;49.794;10.024;2022-10-31T13:35:02;17.00;65.80
24636;DHT22;12772;49.794;10.024;2022-10-31T13:39:22;17.00;65.80
24636;DHT22;12772;49.794;10.024;2022-10-31T13:44:04;17.10;65.70
24636;DHT22;12772;49.794;10.024;2022-10-31T13:52:23;17.20;65.80
24636;DHT22;12772;49.794;10.024;2022-10-31T13:56:29;17.20;65.80
24636;DHT22;12772;49.794;10.024;2022-10-31T14:00:32;17.30;65.70
24636;DHT22;12772;49.794;10.024;2022-10-31T14:04:45;17.30;65.60
24636;DHT22;12772;49.794;10.024;2022-10-31T14:08:50;17.40;65.40
24636;DHT22;12772;49.794;10.024;2022-10-31T14:13:07;17.40;65.30
24636;DHT22;12772;49.794;10.024;2022-10-31T14:17:18;17.50;65.10
24636;DHT22;12772;49.794;10.024;2022-10-31T14:25:36;17.50;64.80
24636;DHT22;12772;49.794;10.024;2022-10-31T14:29:38;17.60;64.80
24636;DHT22;12772;49.794;10.024;2022-10-31T14:33:42;17.60;64.70
24636;DHT22;12772;49.794;10.024;2022-10-31T14:38:32;17.60;64.60
24636;DHT22;12772;49.794;10.024;2022-10-31T14:47:31;17.60;64.40
24636;DHT22;12772;49.794;10.024;2022-10-31T14:51:46;17.70;64.50
24636;DHT22;12772;49.794;10.024;2022-10-31T14:55:54;17.70;64.50
24636;DHT22;12772;49.794;10.024;2022-10-31T15:00:00;17.60;64.40
24636;DHT22;12772;49.794;10.024;2022-10-31T15:04:15;17.60;64.60
24636;DHT22;12772;49.794;10.024;2022-10-31T15:08:33;17.50;64.90
24636;DHT22;12772;49.794;10.024;2022-10-31T15:12:35;17.50;65.10
24636;DHT22;12772;49.794;10.024;2022-10-31T15:16:42;17.50;65.50
24636;DHT22;12772;49.794;10.024;2022-10-31T15:20:45;17.50;65.00
24636;DHT22;12772;49.794;10.024;2022-10-31T15:24:48;17.50;65.00
24636;DHT22;12772;49.794;10.024;2022-10-31T15:29:01;17.50;65.00
24636;DHT22;12772;49.794;10.024;2022-10-31T15:33:20;17.50;64.90
24636;DHT22;12772;49.794;10.024;2022-10-31T15:37:24;17.50;64.90
24636;DHT22;12772;49.794;10.024;2022-10-31T15:41:28;17.50;64.90
24636;DHT22;12772;49.794;10.024;2022-10-31T15:45:31;17.50;64.90
24636;DHT22;12772;49.794;10.024;2022-10-31T15:49:39;17.50;64.80
24636;DHT22;12772;49.794;10.024;2022-10-31T15:53:48;17.50;64.70
24636;DHT22;12772;49.794;10.024;2022-10-31T15:57:53;17.50;64.70
24636;DHT22;12772;49.794;10.024;2022-10-31T16:02:02;17.40;64.80
24636;DHT22;12772;49.794;10.024;2022-10-31T16:06:05;17.40;64.80
24636;DHT22;12772;49.794;10.024;2022-10-31T16:10:23;17.30;64.70
24636;DHT22;12772;49.794;10.024;2022-10-31T16:14:31;17.30;64.70
24636;DHT22;12772;49.794;10.024;2022-10-31T16:18:36;17.20;64.80
24636;DHT22;12772;49.794;10.024;2022-10-31T16:22:39;17.20;64.70
24636;DHT22;12772;49.794;10.024;2022-10-31T16:26:41;17.10;64.50
24636;DHT22;12772;49.794;10.024;2022-10-31T16:30:50;17.00;64.40
24636;DHT22;12772;49.794;10.024;2022-10-31T16:34:59;17.00;64.50
24636;DHT22;12772;49.794;10.024;2022-10-31T16:39:02;16.90;64.40
24636;DHT22;12772;49.794;10.024;2022-10-31T16:43:05;16.90;64.30
24636;DHT22;12772;49.794;10.024;2022-10-31T16:47:15;16.80;64.20
24636;DHT22;12772;49.794;10.024;2022-10-31T16:51:17;16.80;64.20
24636;DHT22;12772;49.794;10.024;2022-10-31T16:55:20;16.70;64.10
24636;DHT22;12772;49.794;10.024;2022-10-31T16:59:22;16.70;64.00
24636;DHT22;12772;49.794;10.024;2022-10-31T17:03:24;16.70;63.90
24636;DHT22;12772;49.794;10.024;2022-10-31T17:07:26;16.60;63.80
24636;DHT22;12772;49.794;10.024;2022-10-31T17:11:28;16.50;64.00
24636;DHT22;12772;49.794;10.024;2022-10-31T17:15:37;16.40;64.10
24636;DHT22;12772;49.794;10.024;2022-10-31T17:19:40;16.30;64.50
24636;DHT22;12772;49.794;10.024;2022-10-31T17:23:42;16.20;65.00
24636;DHT22;12772;49.794;10.024;2022-10-31T17:27:45;16.10;65.20
24636;DHT22;12772;49.794;10.024;2022-10-31T17:31:46;16.10;65.50
24636;DHT22;12772;49.794;10.024;2022-10-31T17:35:49;16.10;65.70
24636;DHT22;12772;49.794;10.024;2022-10-31T17:39:54;16.00;65.80
24636;DHT22;12772;49.794;10.024;2022-10-31T17:43:57;16.00;65.90
24636;DHT22;12772;49.794;10.024;2022-10-31T17:47:59;16.10;66.30
24636;DHT22;12772;49.794;10.024;2022-10-31T17:52:01;16.00;65.80
24636;DHT22;12772;49.794;10.024;2022-10-31T17:56:05;16.00;65.70
24636;DHT22;12772;49.794;10.024;2022-10-31T18:00:10;16.00;65.70
24636;DHT22;12772;49.794;10.024;2022-10-31T18:04:12;16.00;65.70
24636;DHT22;12772;49.794;10.024;2022-10-31T18:08:14;16.00;65.70
24636;DHT22;12772;49.794;10.024;2022-10-31T18:12:20;16.00;65.60
24636;DHT22;12772;49.794;10.024;2022-10-31T18:16:25;16.00;65.60
24636;DHT22;12772;49.794;10.024;2022-10-31T18:20:28;15.90;65.50
24636;DHT22;12772;49.794;10.024;2022-10-31T18:24:30;16.00;65.60
24636;DHT22;12772;49.794;10.024;2022-10-31T18:28:32;15.90;65.60
24636;DHT22;12772;49.794;10.024;2022-10-31T18:32:34;15.90;65.50
24636;DHT22;12772;49.794;10.024;2022-10-31T18:36:36;15.90;65.60
24636;DHT22;12772;49.794;10.024;2022-10-31T18:40:38;15.90;65.60
24636;DHT22;12772;49.794;10.024;2022-10-31T18:44:40;15.90;65.60
24636;DHT22;12772;49.794;10.024;2022-10-31T18:48:43;15.90;65.50
24636;DHT22;12772;49.794;10.024;2022-10-31T18:52:45;15.90;65.50
24636;DHT22;12772;49.794;10.024;2022-10-31T18:56:47;15.80;65.00
24636;DHT22;12772;49.794;10.024;2022-10-31T19:00:49;15.70;64.80
24636;DHT22;12772;49.794;10.024;2022-10-31T19:04:51;15.70;65.00
24636;DHT22;12772;49.794;10.024;2022-10-31T19:09:04;15.60;65.20
24636;DHT22;12772;49.794;10.024;2022-10-31T19:13:08;15.60;65.40
24636;DHT22;12772;49.794;10.024;2022-10-31T19:17:10;15.60;65.40
24636;DHT22;12772;49.794;10.024;2022-10-31T19:21:14;15.60;65.50
24636;DHT22;12772;49.794;10.024;2022-10-31T19:25:17;15.60;65.60
24636;DHT22;12772;49.794;10.024;2022-10-31T19:29:22;15.60;65.60
24636;DHT22;12772;49.794;10.024;2022-10-31T19:33:25;15.60;65.60
24636;DHT22;12772;49.794;10.024;2022-10-31T19:37:28;15.70;65.50
24636;DHT22;12772;49.794;10.024;2022-10-31T19:41:30;15.70;65.10
24636;DHT22;12772;49.794;10.024;2022-10-31T19:45:32;15.60;65.00
24636;DHT22;12772;49.794;10.024;2022-10-31T19:49:34;15.60;65.10
24636;DHT22;12772;49.794;10.024;2022-10-31T19:53:37;15.50;65.10
24636;DHT22;12772;49.794;10.024;2022-10-31T19:57:39;15.50;65.20
24636;DHT22;12772;49.794;10.024;2022-10-31T20:01:41;15.50;65.00
24636;DHT22;12772;49.794;10.024;2022-10-31T20:05:44;15.50;64.90
24636;DHT22;12772;49.794;10.024;2022-10-31T20:09:46;15.50;64.70
24636;DHT22;12772;49.794;10.024;2022-10-31T20:13:48;15.50;64.60
24636;DHT22;12772;49.794;10.024;2022-10-31T20:17:50;15.50;64.70
24636;DHT22;12772;49.794;10.024;2022-10-31T20:21:52;15.40;64.60
24636;DHT22;12772;49.794;10.024;2022-10-31T20:25:54;15.40;64.50
24636;DHT22;12772;49.794;10.024;2022-10-31T20:29:56;15.40;64.40
24636;DHT22;12772;49.794;10.024;2022-10-31T20:33:59;15.30;64.50
24636;DHT22;12772;49.794;10.024;2022-10-31T20:38:00;15.30;64.70
24636;DHT22;12772;49.794;10.024;2022-10-31T20:42:04;15.20;64.70
24636;DHT22;12772;49.794;10.024;2022-10-31T20:46:14;15.20;64.70
24636;DHT22;12772;49.794;10.024;2022-10-31T20:50:17;15.20;64.80
24636;DHT22;12772;49.794;10.024;2022-10-31T20:54:19;15.10;64.60
24636;DHT22;12772;49.794;10.024;2022-10-31T20:58:21;15.00;64.80
24636;DHT22;12772;49.794;10.024;2022-10-31T21:02:23;14.90;65.30
24636;DHT22;12772;49.794;10.024;2022-10-31T21:06:25;14.90;65.70
24636;DHT22;12772;49.794;10.024;2022-10-31T21:10:28;14.90;66.00
24636;DHT22;12772;49.794;10.024;2022-10-31T21:14:30;14.90;65.70
24636;DHT22;12772;49.794;10.024;2022-10-31T21:18:37;14.80;66.10
24636;DHT22;12772;49.794;10.024;2022-10-31T21:22:40;14.70;66.60
24636;DHT22;12772;49.794;10.024;2022-10-31T21:26:44;14.70;67.00
24636;DHT22;12772;49.794;10.024;2022-10-31T21:30:48;14.70;67.40
24636;DHT22;12772;49.794;10.024;2022-10-31T21:34:51;14.80;67.60
24636;DHT22;12772;49.794;10.024;2022-10-31T21:38:54;14.80;67.50
24636;DHT22;12772;49.794;10.024;2022-10-31T21:42:56;14.90;67.30
24636;DHT22;12772;49.794;10.024;2022-10-31T21:46:58;14.90;67.30
24636;DHT22;12772;49.794;10.024;2022-10-31T21:51:02;15.00;67.20
24636;DHT22;12772;49.794;10.024;2022-10-31T21:55:05;15.00;66.80
24636;DHT22;12772;49.794;10.024;2022-10-31T21:59:07;15.00;66.70
24636;DHT22;12772;49.794;10.024;2022-10-31T22:03:09;14.90;66.70
24636;DHT22;12772;49.794;10.024;2022-10-31T22:07:11;14.90;66.80
24636;DHT22;12772;49.794;10.024;2022-10-31T22:11:15;14.90;67.10
24636;DHT22;12772;49.794;10.024;2022-10-31T22:15:18;14.90;67.20
24636;DHT22;12772;49.794;10.024;2022-10-31T22:19:22;14.90;67.00
24636;DHT22;12772;49.794;10.024;2022-10-31T22:23:24;15.00;67.20
24636;DHT22;12772;49.794;10.024;2022-10-31T22:27:26;15.00;67.10
24636;DHT22;12772;49.794;10.024;2022-10-31T22:31:30;15.00;66.90
24636;DHT22;12772;49.794;10.024;2022-10-31T22:35:33;15.00;67.00
24636;DHT22;12772;49.794;10.024;2022-10-31T22:39:35;15.00;67.10
24636;DHT22;12772;49.794;10.024;2022-10-31T22:43:37;15.00;66.80
24636;DHT22;12772;49.794;10.024;2022-10-31T22:47:40;15.00;66.70
24636;DHT22;12772;49.794;10.024;2022-10-31T22:51:42;15.00;66.70
24636;DHT22;12772;49.794;10.024;2022-10-31T22:55:45;15.00;66.70
24636;DHT22;12772;49.794;10.024;2022-10-31T22:59:47;14.90;66.40
24636;DHT22;12772;49.794;10.024;2022-10-31T23:03:50;14.90;66.70
24636;DHT22;12772;49.794;10.024;2022-10-31T23:07:52;14.90;66.50
24636;DHT22;12772;49.794;10.024;2022-10-31T23:11:54;15.00;66.40
24636;DHT22;12772;49.794;10.024;2022-10-31T23:16:16;14.90;66.20
24636;DHT22;12772;49.794;10.024;2022-10-31T23:20:18;14.90;66.20
24636;DHT22;12772;49.794;10.024;2022-10-31T23:24:26;14.90;66.20
24636;DHT22;12772;49.794;10.024;2022-10-31T23:28:28;14.90;66.10
24636;DHT22;12772;49.794;10.024;2022-10-31T23:32:35;14.90;66.10
24636;DHT22;12772;49.794;10.024;2022-10-31T23:36:37;14.80;66.00
24636;DHT22;12772;49.794;10.024;2022-10-31T23:40:39;14.80;65.90
24636;DHT22;12772;49.794;10.024;2022-10-31T23:44:41;14.80;66.00
24636;DHT22;12772;49.794;10.024;2022-10-31T23:48:43;14.80;66.10
24636;DHT22;12772;49.794;10.024;2022-10-31T23:52:47;14.80;66.00
24636;DHT22;12772;49.794;10.024;2022-10-31T23:56:50;14.70;66.00
